Time;durP1;ratioP1;P1;durP2;ratioP2;P2;SDS_P1;SDS_P2;PMS_P1;PMS_P2;Temp;Humidity;BMP_temperature;BMP_pressure;BME280_temperature;BME280_humidity;BME280_pressure;Samples;Min_cycle;Max_cycle;Signal;HPM_P1;HPM_P2
2021/12/01 00:01:10;;;;;;;2.28;1.58;;;10.40;99.90;;;;;;5120384;28;20092;-65
2021/12/01 00:03:36;;;;;;;1.70;1.60;;;10.40;99.90;;;;;;5120519;28;20025;-65
2021/12/01 00:06:03;;;;;;;4.15;1.52;;;10.40;99.90;;;;;;5120164;28;20037;-63
2021/12/01 00:08:29;;;;;;;5.00;2.15;;;10.40;99.90;;;;;;5119862;28;20037;-63
2021/12/01 00:10:55;;;;;;;3.20;2.25;;;10.40;99.90;;;;;;5118892;28;20032;-64
2021/12/01 00:13:22;;;;;;;3.55;2.85;;;10.40;99.90;;;;;;5102199;28;20023;-62
2021/12/01 00:15:50;;;;;;;3.20;2.88;;;10.30;99.90;;;;;;5119622;28;20034;-63
2021/12/01 00:18:16;;;;;;;4.38;3.85;;;10.40;99.90;;;;;;5119317;28;20285;-63
2021/12/01 00:20:42;;;;;;;3.67;3.38;;;10.40;99.90;;;;;;5119739;28;20111;-65
2021/12/01 00:23:09;;;;;;;6.15;4.13;;;10.30;99.90;;;;;;5119676;28;20051;-65
2021/12/01 00:25:39;;;;;;;4.13;3.72;;;10.30;99.90;;;;;;5119676;28;20047;-65
2021/12/01 00:28:06;;;;;;;4.05;3.70;;;10.30;99.90;;;;;;5119625;28;20324;-63
2021/12/01 00:30:32;;;;;;;4.53;3.92;;;10.30;99.90;;;;;;5119847;28;20092;-64
2021/12/01 00:32:58;;;;;;;4.80;4.28;;;10.30;99.90;;;;;;5119492;28;20024;-63
2021/12/01 00:35:24;;;;;;;6.20;3.95;;;10.30;99.90;;;;;;5119515;28;20038;-65
2021/12/01 00:37:50;;;;;;;4.30;3.90;;;10.30;99.90;;;;;;5119426;28;20036;-63
2021/12/01 00:40:16;;;;;;;4.53;3.90;;;10.30;99.90;;;;;;5119385;28;20051;-64
2021/12/01 00:42:43;;;;;;;3.70;3.40;;;10.30;99.90;;;;;;5119316;28;20097;-63
2021/12/01 00:45:18;;;;;;;4.65;3.38;;;10.20;99.90;;;;;;5118625;28;20123;-64
2021/12/01 00:47:54;;;;;;;5.60;3.70;;;10.20;99.90;;;;;;5119588;28;20400;-64
2021/12/01 00:50:24;;;;;;;3.67;3.38;;;10.20;99.90;;;;;;5119244;28;20063;-62
2021/12/01 00:52:52;;;;;;;4.03;3.70;;;10.20;99.90;;;;;;5119767;28;20098;-65
2021/12/01 00:55:19;;;;;;;4.68;3.75;;;10.10;99.90;;;;;;5119072;28;20042;-62
2021/12/01 00:57:44;;;;;;;5.18;3.75;;;10.10;99.90;;;;;;5118625;28;20367;-65
2021/12/01 01:00:13;;;;;;;4.18;3.70;;;10.10;99.90;;;;;;5119261;28;20059;-64
2021/12/01 01:02:39;;;;;;;3.40;3.10;;;10.10;99.90;;;;;;5118898;28;20043;-62
2021/12/01 01:05:05;;;;;;;3.83;3.10;;;10.10;99.90;;;;;;5119152;28;20339;-67
2021/12/01 01:07:32;;;;;;;3.30;2.92;;;10.10;99.90;;;;;;5118919;28;20047;-62
2021/12/01 01:10:04;;;;;;;3.35;3.05;;;10.10;99.90;;;;;;5117978;28;20032;-63
2021/12/01 01:18:08;;;;;;;3.15;2.60;;;10.00;99.90;;;;;;5118682;28;20024;-62
2021/12/01 01:20:34;;;;;;;2.45;2.22;;;9.90;99.90;;;;;;5118218;28;20073;-64
2021/12/01 01:23:00;;;;;;;1.95;1.83;;;9.90;99.90;;;;;;5118613;28;20039;-64
2021/12/01 01:25:28;;;;;;;2.15;2.03;;;9.80;99.90;;;;;;5118506;28;20031;-66
2021/12/01 01:27:54;;;;;;;2.20;2.00;;;9.80;99.90;;;;;;5118496;28;20446;-64
2021/12/01 01:30:20;;;;;;;2.78;2.28;;;9.80;99.90;;;;;;5118345;28;20404;-63
2021/12/01 01:32:46;;;;;;;2.22;2.00;;;9.70;99.90;;;;;;5118402;28;20034;-62
2021/12/01 01:35:13;;;;;;;4.53;2.35;;;9.70;99.90;;;;;;5118262;28;20027;-62
2021/12/01 01:37:42;;;;;;;2.28;2.08;;;9.70;99.90;;;;;;5118363;28;20023;-64
2021/12/01 01:40:09;;;;;;;2.40;2.20;;;9.70;99.90;;;;;;5118071;28;20062;-64
2021/12/01 01:42:35;;;;;;;2.30;2.10;;;9.60;99.90;;;;;;5118109;28;20044;-60
2021/12/01 01:45:01;;;;;;;2.40;2.20;;;9.60;99.90;;;;;;5100324;28;20312;-64
2021/12/01 01:47:27;;;;;;;2.00;1.90;;;9.60;99.90;;;;;;5118043;28;20031;-62
2021/12/01 01:49:59;;;;;;;3.05;1.80;;;9.60;99.90;;;;;;5100329;28;20031;-62
2021/12/01 01:52:29;;;;;;;1.98;1.77;;;9.60;99.90;;;;;;5118137;28;20088;-64
2021/12/01 01:54:56;;;;;;;2.33;2.13;;;9.60;99.90;;;;;;5117948;28;20042;-63
2021/12/01 01:57:21;;;;;;;2.55;2.35;;;9.60;99.90;;;;;;5117946;28;20383;-63
2021/12/01 01:59:48;;;;;;;2.42;1.80;;;9.60;99.90;;;;;;5118240;28;20032;-62
2021/12/01 02:02:13;;;;;;;3.47;2.17;;;9.60;99.90;;;;;;5118236;28;20029;-63
2021/12/01 02:04:39;;;;;;;1.98;1.77;;;9.60;99.90;;;;;;5117761;28;20035;-64
2021/12/01 02:07:06;;;;;;;2.85;2.03;;;9.60;99.90;;;;;;5118259;28;20434;-62
2021/12/01 02:09:32;;;;;;;2.90;2.00;;;9.60;99.90;;;;;;5118097;28;20036;-61
2021/12/01 02:12:00;;;;;;;2.53;2.10;;;9.60;99.90;;;;;;5118152;28;20023;-64
2021/12/01 02:14:27;;;;;;;3.22;2.00;;;9.60;99.90;;;;;;5117657;28;20088;-63
2021/12/01 02:16:55;;;;;;;2.55;2.10;;;9.60;99.90;;;;;;5117121;28;20019;-63
2021/12/01 02:19:21;;;;;;;2.83;2.20;;;9.60;99.90;;;;;;5117673;28;20352;-63
2021/12/01 02:21:48;;;;;;;2.20;2.05;;;9.70;99.90;;;;;;5118058;28;20034;-64
2021/12/01 02:24:15;;;;;;;3.00;2.40;;;9.70;99.90;;;;;;5117638;28;20073;-65
2021/12/01 02:26:45;;;;;;;2.47;2.28;;;9.60;99.90;;;;;;5117498;28;20024;-64
2021/12/01 02:29:14;;;;;;;2.35;2.15;;;9.60;99.90;;;;;;5117490;28;20023;-64
2021/12/01 02:31:43;;;;;;;3.60;2.10;;;9.60;99.90;;;;;;5116715;28;20039;-61
2021/12/01 02:34:18;;;;;;;2.65;2.38;;;9.60;99.90;;;;;;5116578;28;20292;-63
2021/12/01 02:36:52;;;;;;;2.80;2.60;;;9.60;99.90;;;;;;5116591;28;20125;-64
2021/12/01 02:39:18;;;;;;;2.70;2.45;;;9.60;99.90;;;;;;5117452;28;20039;-63
2021/12/01 02:41:49;;;;;;;4.05;2.90;;;9.50;99.90;;;;;;5117205;28;20024;-63
2021/12/01 02:44:17;;;;;;;3.00;2.80;;;9.50;99.90;;;;;;5117874;28;20395;-65
2021/12/01 02:46:44;;;;;;;3.25;3.05;;;9.40;99.90;;;;;;5117209;28;20062;-63
2021/12/01 02:49:10;;;;;;;3.90;3.55;;;9.40;99.90;;;;;;5117198;28;20084;-65
2021/12/01 02:51:37;;;;;;;3.90;3.50;;;9.30;99.90;;;;;;5117736;28;20071;-63
2021/12/01 02:54:05;;;;;;;4.53;4.18;;;9.30;99.90;;;;;;5117656;28;20034;-63
2021/12/01 02:56:33;;;;;;;4.88;4.40;;;9.20;99.90;;;;;;5117226;28;20039;-65
2021/12/01 02:59:00;;;;;;;5.13;4.60;;;9.20;99.90;;;;;;5117750;28;20042;-64
2021/12/01 03:01:27;;;;;;;4.82;4.35;;;9.10;99.90;;;;;;5117063;28;20043;-64
2021/12/01 03:03:53;;;;;;;4.80;4.40;;;9.10;99.90;;;;;;5116408;28;20358;-63
2021/12/01 03:06:21;;;;;;;4.78;4.30;;;9.10;99.90;;;;;;5117289;28;20035;-62
2021/12/01 03:08:48;;;;;;;4.45;4.05;;;9.10;99.90;;;;;;5116972;28;20028;-61
2021/12/01 03:11:16;;;;;;;5.18;4.68;;;9.10;99.90;;;;;;5116226;28;20035;-66
2021/12/01 03:13:42;;;;;;;5.18;4.78;;;9.10;99.90;;;;;;5117321;28;20297;-65
2021/12/01 03:16:08;;;;;;;5.15;4.55;;;9.10;99.90;;;;;;5116947;28;20057;-63
2021/12/01 03:18:34;;;;;;;6.60;5.05;;;9.10;99.90;;;;;;5116919;28;20036;-63
2021/12/01 03:21:01;;;;;;;5.63;5.13;;;9.00;99.90;;;;;;5116901;28;20116;-62
2021/12/01 03:23:27;;;;;;;6.15;5.57;;;8.90;99.90;;;;;;5116733;28;20354;-61
2021/12/01 03:25:54;;;;;;;6.20;5.63;;;8.90;99.90;;;;;;5116094;28;20036;-61
2021/12/01 03:28:20;;;;;;;6.43;5.82;;;8.90;99.90;;;;;;5117788;28;20035;-60
2021/12/01 03:30:47;;;;;;;7.28;6.03;;;8.80;99.90;;;;;;5119870;28;20055;-61
2021/12/01 03:33:17;;;;;;;7.20;5.93;;;8.80;99.90;;;;;;5120045;28;20066;-61
2021/12/01 03:35:45;;;;;;;6.88;5.88;;;8.90;99.90;;;;;;5120709;28;20400;-61
2021/12/01 03:38:12;;;;;;;8.35;5.88;;;8.80;99.90;;;;;;5120164;28;20040;-61
2021/12/01 03:40:40;;;;;;;6.53;5.93;;;8.80;99.90;;;;;;5120498;28;20443;-62
2021/12/01 03:43:06;;;;;;;5.72;5.18;;;8.70;99.90;;;;;;5119707;28;20039;-63
2021/12/01 03:45:32;;;;;;;5.25;4.75;;;8.80;99.90;;;;;;5119836;28;20396;-63
2021/12/01 03:47:58;;;;;;;5.60;5.10;;;8.80;99.90;;;;;;5119710;28;20031;-66
2021/12/01 03:50:24;;;;;;;5.82;5.18;;;8.80;99.90;;;;;;5119590;28;20038;-62
2021/12/01 03:52:50;;;;;;;5.47;4.97;;;8.80;99.90;;;;;;5120679;28;20020;-62
2021/12/01 03:55:16;;;;;;;5.55;4.85;;;8.80;99.90;;;;;;5120586;28;20027;-65
2021/12/01 03:57:42;;;;;;;5.18;4.65;;;8.80;99.90;;;;;;5120212;28;20024;-64
2021/12/01 04:00:12;;;;;;;5.10;4.60;;;8.70;99.90;;;;;;5120456;28;20073;-65
2021/12/01 04:02:41;;;;;;;5.15;4.57;;;8.70;99.90;;;;;;5120522;28;20114;-64
2021/12/01 04:05:08;;;;;;;5.20;4.57;;;8.70;99.90;;;;;;5120084;28;20169;-65
2021/12/01 04:07:34;;;;;;;5.00;4.60;;;8.80;99.90;;;;;;5120038;28;20032;-65
2021/12/01 04:10:01;;;;;;;4.93;4.50;;;8.80;99.90;;;;;;5119974;28;20023;-65
2021/12/01 04:12:27;;;;;;;5.70;4.13;;;8.80;99.90;;;;;;5120225;28;20032;-65
2021/12/01 04:14:53;;;;;;;5.80;4.07;;;8.80;99.90;;;;;;5120220;28;20411;-64
2021/12/01 04:17:19;;;;;;;4.38;3.47;;;8.70;99.90;;;;;;5119261;28;20020;-64
2021/12/01 04:19:45;;;;;;;3.80;3.50;;;8.70;99.90;;;;;;5119816;27;20039;-64
2021/12/01 04:22:11;;;;;;;4.78;3.47;;;8.70;99.90;;;;;;5119760;28;20032;-63
2021/12/01 04:24:37;;;;;;;3.20;2.90;;;8.60;99.90;;;;;;5119701;28;20038;-63
2021/12/01 04:27:03;;;;;;;6.45;5.65;;;8.60;99.90;;;;;;5119532;28;20116;-64
2021/12/01 04:29:29;;;;;;;4.45;3.00;;;8.60;99.90;;;;;;5119260;28;20031;-61
2021/12/01 04:31:55;;;;;;;4.20;2.78;;;8.50;99.90;;;;;;5119466;28;20023;-61
2021/12/01 04:34:21;;;;;;;4.28;2.92;;;8.50;99.90;;;;;;5119284;28;20028;-61
2021/12/01 04:36:49;;;;;;;3.38;2.60;;;8.50;99.90;;;;;;5119529;28;20047;-60
2021/12/01 04:39:16;;;;;;;4.35;3.20;;;8.50;99.90;;;;;;5118871;28;20043;-60
2021/12/01 04:41:56;;;;;;;3.08;2.70;;;8.40;99.90;;;;;;5119445;27;20063;-61
2021/12/01 04:44:25;;;;;;;3.55;2.70;;;8.40;99.90;;;;;;5101616;28;20039;-61
2021/12/01 04:46:56;;;;;;;2.58;2.38;;;8.50;99.90;;;;;;5119387;28;20047;-61
2021/12/01 04:49:23;;;;;;;2.40;2.20;;;8.50;99.90;;;;;;5118520;28;20035;-60
2021/12/01 04:51:56;;;;;;;2.60;2.30;;;8.50;99.90;;;;;;5118814;28;20288;-61
2021/12/01 04:54:23;;;;;;;2.65;2.10;;;8.50;99.90;;;;;;5119164;28;20396;-61
2021/12/01 04:56:50;;;;;;;3.40;2.13;;;8.50;99.90;;;;;;5119171;28;20270;-60
2021/12/01 04:59:16;;;;;;;2.70;2.10;;;8.50;99.90;;;;;;5119020;28;20016;-60
2021/12/01 05:01:43;;;;;;;1.90;1.80;;;8.50;99.90;;;;;;5119349;28;20023;-60
2021/12/01 05:04:10;;;;;;;2.15;1.95;;;8.50;99.90;;;;;;5118921;28;20039;-63
2021/12/01 05:06:40;;;;;;;1.75;1.65;;;8.50;99.90;;;;;;5118296;28;20043;-60
2021/12/01 05:09:07;;;;;;;1.80;1.70;;;8.50;99.90;;;;;;5118883;28;20301;-63
2021/12/01 05:11:33;;;;;;;2.35;1.67;;;8.50;99.90;;;;;;5118800;28;20028;-61
2021/12/01 05:13:59;;;;;;;2.25;1.50;;;8.40;99.90;;;;;;5117992;28;20039;-62
2021/12/01 05:16:25;;;;;;;1.40;1.30;;;8.50;99.90;;;;;;5118711;28;20054;-63
2021/12/01 05:18:51;;;;;;;2.10;1.20;;;8.50;99.90;;;;;;5118980;28;20024;-64
2021/12/01 05:21:18;;;;;;;1.90;1.20;;;8.50;99.90;;;;;;5118518;28;20043;-62
2021/12/01 05:23:44;;;;;;;2.50;1.40;;;8.50;99.90;;;;;;5118773;28;20115;-61
2021/12/01 05:26:11;;;;;;;1.33;1.23;;;8.50;99.90;;;;;;5118755;28;20124;-61
2021/12/01 05:28:40;;;;;;;2.20;1.30;;;8.50;99.90;;;;;;5118584;27;20119;-63
2021/12/01 05:31:06;;;;;;;1.17;1.08;;;8.50;99.90;;;;;;5118336;28;20031;-64
2021/12/01 05:33:33;;;;;;;1.30;1.08;;;8.50;99.90;;;;;;5118371;28;20039;-61
2021/12/01 05:35:59;;;;;;;2.45;1.10;;;8.50;99.90;;;;;;5118324;28;20031;-63
2021/12/01 05:38:26;;;;;;;1.80;1.08;;;8.60;99.90;;;;;;5117524;28;20035;-60
2021/12/01 05:40:52;;;;;;;1.95;1.30;;;8.60;99.90;;;;;;5118128;28;20051;-63
2021/12/01 05:43:19;;;;;;;3.35;1.40;;;8.50;99.90;;;;;;5118169;28;20039;-61
2021/12/01 05:45:46;;;;;;;1.63;1.40;;;8.60;99.90;;;;;;5118347;28;20107;-60
2021/12/01 05:48:14;;;;;;;1.85;1.20;;;8.60;99.90;;;;;;5118141;28;20024;-60
2021/12/01 05:50:40;;;;;;;1.88;1.15;;;8.60;99.90;;;;;;5117262;28;20034;-60
2021/12/01 05:53:06;;;;;;;3.30;1.25;;;8.70;99.90;;;;;;5118256;28;20028;-60
2021/12/01 05:55:32;;;;;;;2.28;1.60;;;8.70;99.90;;;;;;5117602;28;20408;-61
2021/12/01 05:57:58;;;;;;;2.08;1.60;;;8.70;99.90;;;;;;5117095;28;20355;-62
2021/12/01 06:00:24;;;;;;;1.50;1.30;;;8.80;99.90;;;;;;5117735;28;20389;-60
2021/12/01 06:02:51;;;;;;;2.42;1.65;;;8.80;99.90;;;;;;5117764;28;20061;-63
2021/12/01 06:05:18;;;;;;;1.70;1.60;;;8.80;99.90;;;;;;5118102;28;20036;-63
2021/12/01 06:07:44;;;;;;;2.22;1.90;;;8.80;99.90;;;;;;5117776;28;20032;-60
2021/12/01 06:10:10;;;;;;;2.03;1.50;;;8.90;99.90;;;;;;5117620;28;20027;-62
2021/12/01 06:12:40;;;;;;;2.80;1.90;;;8.90;99.90;;;;;;5118057;28;20020;-63
2021/12/01 06:15:07;;;;;;;2.15;1.70;;;8.90;99.90;;;;;;5117054;28;20076;-62
2021/12/01 06:17:33;;;;;;;2.00;1.80;;;8.90;99.90;;;;;;5118071;28;20389;-62
2021/12/01 06:19:59;;;;;;;2.47;1.60;;;8.90;99.90;;;;;;5099820;28;20040;-62
2021/12/01 06:22:25;;;;;;;2.13;1.63;;;8.90;99.90;;;;;;5117586;28;20027;-66
2021/12/01 06:24:51;;;;;;;2.40;1.73;;;9.00;99.90;;;;;;5117457;28;20111;-62
2021/12/01 06:27:18;;;;;;;2.95;1.75;;;9.00;99.90;;;;;;5117481;28;20039;-61
2021/12/01 06:29:43;;;;;;;2.20;2.00;;;8.90;99.90;;;;;;5117302;28;20085;-62
2021/12/01 06:32:09;;;;;;;2.45;1.92;;;9.00;99.90;;;;;;5117366;28;20035;-61
2021/12/01 06:34:35;;;;;;;1.90;1.80;;;9.00;99.90;;;;;;5117374;27;20277;-62
2021/12/01 06:37:01;;;;;;;2.63;2.00;;;9.00;99.90;;;;;;5117421;28;20057;-61
2021/12/01 06:39:26;;;;;;;2.22;2.00;;;9.00;99.90;;;;;;5117112;28;20138;-62
2021/12/01 06:41:54;;;;;;;2.45;2.00;;;9.00;99.90;;;;;;5117336;28;20058;-61
2021/12/01 06:44:21;;;;;;;1.90;1.65;;;9.10;99.90;;;;;;5116829;28;20292;-63
2021/12/01 06:46:47;;;;;;;2.10;1.90;;;9.10;99.90;;;;;;5116599;28;20024;-61
2021/12/01 06:49:13;;;;;;;2.35;1.92;;;9.10;99.90;;;;;;5117269;28;20484;-62
2021/12/01 06:51:38;;;;;;;2.03;1.88;;;9.10;99.90;;;;;;5117694;28;20028;-63
2021/12/01 06:54:04;;;;;;;1.80;1.70;;;9.20;99.90;;;;;;5117204;28;20028;-62
2021/12/01 06:56:30;;;;;;;2.65;1.77;;;9.20;99.90;;;;;;5117205;28;20304;-62
2021/12/01 06:58:56;;;;;;;2.55;1.90;;;9.20;99.90;;;;;;5116244;28;20122;-64
2021/12/01 07:01:22;;;;;;;2.92;2.00;;;9.20;99.90;;;;;;5116513;28;20420;-62
2021/12/01 07:03:47;;;;;;;2.90;2.00;;;9.20;99.90;;;;;;5120609;28;20039;-62
2021/12/01 07:06:13;;;;;;;2.40;2.20;;;9.20;99.90;;;;;;5121363;28;20089;-62
2021/12/01 07:08:39;;;;;;;2.70;2.50;;;9.20;99.90;;;;;;5120203;28;20092;-62
2021/12/01 07:11:05;;;;;;;2.50;2.30;;;9.20;99.90;;;;;;5121047;28;20076;-62
2021/12/01 07:13:33;;;;;;;2.40;1.83;;;9.30;99.90;;;;;;5121072;28;20103;-64
2021/12/01 07:16:01;;;;;;;2.72;1.90;;;9.30;99.90;;;;;;5121145;28;20036;-64
2021/12/01 07:18:27;;;;;;;2.20;2.00;;;9.30;99.90;;;;;;5120715;28;20027;-62
2021/12/01 07:20:53;;;;;;;2.38;2.10;;;9.20;99.90;;;;;;5121153;28;20043;-64
2021/12/01 07:23:19;;;;;;;3.92;2.50;;;9.30;99.90;;;;;;5120915;28;20400;-64
2021/12/01 07:25:45;;;;;;;3.17;2.75;;;9.40;99.90;;;;;;5121166;28;20316;-63
2021/12/01 07:28:11;;;;;;;4.35;2.20;;;9.40;99.90;;;;;;5120719;28;20042;-63
2021/12/01 07:30:39;;;;;;;2.65;2.45;;;9.40;99.90;;;;;;5120690;28;20047;-63
2021/12/01 07:33:05;;;;;;;5.75;2.50;;;9.40;99.90;;;;;;5120678;28;20031;-62
2021/12/01 07:35:31;;;;;;;2.65;2.20;;;9.30;99.90;;;;;;5120949;28;20127;-62
2021/12/01 07:37:57;;;;;;;3.03;2.50;;;9.30;99.90;;;;;;5120677;28;20118;-61
2021/12/01 07:40:23;;;;;;;3.47;3.13;;;9.20;99.90;;;;;;5120411;28;20100;-61
2021/12/01 07:42:49;;;;;;;3.58;3.15;;;9.20;99.90;;;;;;5120458;28;20031;-63
2021/12/01 07:45:15;;;;;;;4.05;3.65;;;9.20;99.90;;;;;;5119735;28;20169;-61
2021/12/01 07:47:41;;;;;;;2.70;2.50;;;9.20;99.90;;;;;;5120374;28;20404;-60
2021/12/01 07:50:08;;;;;;;3.53;2.42;;;9.20;99.90;;;;;;5120247;28;20126;-61
2021/12/01 07:52:35;;;;;;;2.70;2.50;;;9.20;99.90;;;;;;5120186;28;20375;-62
2021/12/01 07:55:01;;;;;;;2.85;2.15;;;9.20;99.90;;;;;;5119596;28;20316;-62
2021/12/01 07:57:27;;;;;;;2.42;2.22;;;9.20;99.90;;;;;;5119578;28;20028;-63
2021/12/01 07:59:52;;;;;;;4.40;2.05;;;9.20;99.90;;;;;;5120308;28;20103;-63
2021/12/01 08:02:18;;;;;;;3.65;1.80;;;9.30;99.90;;;;;;5119934;28;20027;-63
2021/12/01 08:04:44;;;;;;;2.78;1.70;;;9.30;99.90;;;;;;5119353;28;20055;-64
2021/12/01 08:07:10;;;;;;;1.50;1.38;;;9.40;99.90;;;;;;5119223;28;20035;-62
2021/12/01 08:09:36;;;;;;;1.55;1.33;;;9.30;99.90;;;;;;5119711;28;20426;-62
2021/12/01 08:12:02;;;;;;;3.00;1.70;;;9.30;99.90;;;;;;5119130;28;20027;-63
2021/12/01 08:14:27;;;;;;;1.77;1.10;;;9.30;99.90;;;;;;5118357;28;20012;-62
2021/12/01 08:16:54;;;;;;;1.33;1.23;;;9.30;99.90;;;;;;5119113;28;20039;-63
2021/12/01 08:19:21;;;;;;;1.33;1.00;;;9.30;99.90;;;;;;5119813;28;20020;-63
2021/12/01 08:21:49;;;;;;;1.33;1.00;;;9.40;99.90;;;;;;5119108;28;20131;-61
2021/12/01 08:24:15;;;;;;;1.10;1.00;;;9.40;99.90;;;;;;5120550;28;20031;-65
2021/12/01 08:26:43;;;;;;;1.65;1.27;;;9.40;99.90;;;;;;5119763;28;20308;-61
2021/12/01 08:29:10;;;;;;;2.20;1.10;;;9.40;99.90;;;;;;5119475;28;20035;-62
2021/12/01 08:31:36;;;;;;;2.03;1.17;;;9.40;99.90;;;;;;5119445;28;20096;-61
2021/12/01 08:34:03;;;;;;;1.50;1.30;;;9.50;99.90;;;;;;5118897;28;20278;-61
2021/12/01 08:36:29;;;;;;;2.33;1.30;;;9.40;99.90;;;;;;5118638;28;20023;-61
2021/12/01 08:38:55;;;;;;;3.05;1.33;;;9.40;99.90;;;;;;5119236;28;20038;-62
2021/12/01 08:41:21;;;;;;;1.70;1.60;;;9.30;99.90;;;;;;5119215;28;20039;-59
2021/12/01 08:43:47;;;;;;;1.42;1.33;;;9.40;99.90;;;;;;5118642;28;20391;-59
2021/12/01 08:46:13;;;;;;;1.88;1.50;;;9.30;99.90;;;;;;5119312;28;20039;-59
2021/12/01 08:48:39;;;;;;;1.70;1.40;;;9.40;99.90;;;;;;5119254;28;20311;-59
2021/12/01 08:51:06;;;;;;;3.10;1.40;;;9.40;99.90;;;;;;5118437;28;20040;-59
2021/12/01 08:53:35;;;;;;;2.25;1.40;;;9.40;99.90;;;;;;5119212;28;20039;-59
2021/12/01 08:56:01;;;;;;;2.72;1.42;;;9.40;99.90;;;;;;5118392;28;20034;-59
2021/12/01 08:58:29;;;;;;;2.88;1.60;;;9.40;99.90;;;;;;5119707;28;20062;-59
2021/12/01 09:01:00;;;;;;;1.67;1.58;;;9.50;99.90;;;;;;5118472;28;20404;-59
2021/12/01 09:03:27;;;;;;;2.55;1.80;;;9.60;99.90;;;;;;5118955;28;20053;-58
2021/12/01 09:05:54;;;;;;;2.00;1.50;;;9.60;99.90;;;;;;5118891;28;20131;-58
2021/12/01 09:08:22;;;;;;;3.67;1.60;;;9.80;99.90;;;;;;5118932;28;20118;-58
2021/12/01 09:10:53;;;;;;;11.13;1.70;;;9.70;99.90;;;;;;5118731;28;20027;-62
2021/12/01 09:13:24;;;;;;;3.45;0.80;;;9.60;99.90;;;;;;5118720;28;20027;-56
2021/12/01 09:15:52;;;;;;;2.35;1.17;;;9.50;99.90;;;;;;5118755;28;20027;-59
2021/12/01 09:18:19;;;;;;;2.40;0.90;;;9.40;99.90;;;;;;5118589;28;20415;-58
2021/12/01 09:20:46;;;;;;;2.47;0.90;;;9.20;99.90;;;;;;5118742;28;20173;-58
2021/12/01 09:23:11;;;;;;;4.28;1.20;;;9.20;99.90;;;;;;5119164;28;20031;-59
2021/12/01 09:25:37;;;;;;;63.75;36.42;;;9.20;99.90;;;;;;5100857;28;20114;-57
2021/12/01 09:28:03;;;;;;;3.92;1.20;;;9.30;99.90;;;;;;5117850;28;20120;-58
2021/12/01 09:30:29;;;;;;;7.05;1.75;;;9.30;99.90;;;;;;5118829;28;20033;-58
2021/12/01 09:32:55;;;;;;;5.05;1.42;;;9.40;99.90;;;;;;5117764;28;20036;-58
2021/12/01 09:35:21;;;;;;;4.18;1.63;;;9.40;99.90;;;;;;5118288;28;20354;-57
2021/12/01 09:37:47;;;;;;;10.18;1.88;;;9.50;99.90;;;;;;5118821;28;20099;-57
2021/12/01 09:40:17;;;;;;;4.25;2.00;;;9.60;99.90;;;;;;5118102;28;20055;-57
2021/12/01 09:42:46;;;;;;;6.20;2.38;;;9.50;99.90;;;;;;5119029;28;20287;-58
2021/12/01 09:45:13;;;;;;;8.85;2.38;;;9.60;99.90;;;;;;5118114;27;20111;-57
2021/12/01 09:47:39;;;;;;;13.77;2.72;;;9.70;99.90;;;;;;5118977;28;20388;-62
2021/12/01 09:50:06;;;;;;;7.05;2.35;;;9.90;99.90;;;;;;5118006;28;20142;-58
2021/12/01 09:52:32;;;;;;;6.18;2.00;;;9.90;99.90;;;;;;5117969;28;20023;-57
2021/12/01 09:55:00;;;;;;;7.43;1.75;;;10.00;99.90;;;;;;5100245;28;20034;-58
2021/12/01 09:57:25;;;;;;;8.57;1.77;;;10.00;99.90;;;;;;5117887;28;20312;-58
2021/12/01 09:59:51;;;;;;;5.82;1.25;;;9.90;99.90;;;;;;5117004;28;20135;-65
2021/12/01 10:02:17;;;;;;;9.18;1.10;;;10.00;99.90;;;;;;5117876;28;20372;-63
2021/12/01 10:04:44;;;;;;;7.22;1.13;;;9.80;99.90;;;;;;5117723;28;20032;-64
2021/12/01 10:07:17;;;;;;;7.65;1.55;;;9.70;99.90;;;;;;5117693;28;20028;-64
2021/12/01 10:09:44;;;;;;;6.38;0.85;;;9.70;99.90;;;;;;5116814;28;20039;-63
2021/12/01 10:12:11;;;;;;;7.90;1.30;;;9.70;99.90;;;;;;5117666;28;20080;-64
2021/12/01 10:14:37;;;;;;;4.20;1.02;;;9.60;99.90;;;;;;5117604;28;20023;-61
2021/12/01 10:17:03;;;;;;;6.15;0.85;;;9.50;99.90;;;;;;5100005;28;20031;-67
2021/12/01 10:19:29;;;;;;;9.77;1.33;;;9.50;99.90;;;;;;5117532;28;20035;-65
2021/12/01 10:21:55;;;;;;;7.07;1.40;;;9.50;99.90;;;;;;5117645;28;20042;-65
2021/12/01 10:24:23;;;;;;;5.93;1.20;;;9.50;99.90;;;;;;5117332;28;20393;-61
2021/12/01 10:26:58;;;;;;;7.38;1.17;;;9.60;99.90;;;;;;5117337;28;20035;-67
2021/12/01 10:29:30;;;;;;;6.78;1.20;;;9.70;99.90;;;;;;5117433;28;20038;-63
2021/12/01 10:32:00;;;;;;;5.30;0.80;;;9.90;99.90;;;;;;5117356;28;20028;-61
2021/12/01 10:34:29;;;;;;;5.85;0.98;;;10.00;99.90;;;;;;5117344;28;20023;-66
2021/12/01 10:37:11;;;;;;;9.25;1.20;;;10.10;99.90;;;;;;5116098;28;20035;-67
2021/12/01 10:39:48;;;;;;;4.13;0.90;;;10.60;99.90;;;;;;5116230;28;20070;-64
2021/12/01 10:42:16;;;;;;;7.03;0.80;;;11.50;99.90;;;;;;5117291;28;20337;-64
2021/12/01 10:45:03;;;;;;;7.80;0.98;;;11.80;99.90;;;;;;5117161;28;20043;-64
2021/12/01 10:47:42;;;;;;;7.82;1.25;;;11.60;99.90;;;;;;5117300;28;20334;-64
2021/12/01 10:50:14;;;;;;;3.30;0.60;;;11.40;99.90;;;;;;5116351;28;20024;-62
2021/12/01 10:52:42;;;;;;;5.33;0.83;;;11.00;99.90;;;;;;5117171;28;20023;-64
2021/12/01 10:55:15;;;;;;;4.50;0.93;;;10.60;99.90;;;;;;5116906;28;20273;-63
2021/12/01 10:57:47;;;;;;;6.80;0.80;;;10.20;99.90;;;;;;5117313;28;20092;-65
2021/12/01 11:00:22;;;;;;;4.07;0.70;;;10.00;99.90;;;;;;5117807;28;20031;-64
2021/12/01 11:02:50;;;;;;;3.35;0.73;;;9.90;99.90;;;;;;5116725;28;20296;-64
2021/12/01 11:05:37;;;;;;;3.92;0.73;;;9.90;99.90;;;;;;5117026;28;20043;-64
2021/12/01 11:08:12;;;;;;;4.75;0.70;;;9.90;99.90;;;;;;5117104;28;20024;-67
2021/12/01 11:10:38;;;;;;;2.53;0.50;;;9.90;99.90;;;;;;5116946;28;20031;-64
2021/12/01 11:13:05;;;;;;;4.55;0.57;;;10.00;99.90;;;;;;5117345;28;20058;-69
2021/12/01 11:15:34;;;;;;;4.80;0.63;;;10.00;99.90;;;;;;5117263;28;20155;-65
2021/12/01 11:18:01;;;;;;;5.85;0.50;;;10.00;99.90;;;;;;5116992;28;20028;-67
2021/12/01 11:20:39;;;;;;;4.00;0.80;;;10.00;99.90;;;;;;5116074;28;20169;-66
2021/12/01 11:23:19;;;;;;;2.97;0.60;;;10.00;99.90;;;;;;5116264;28;20042;-67
2021/12/01 11:25:51;;;;;;;5.38;0.60;;;10.10;99.90;;;;;;5116926;28;20077;-66
2021/12/01 11:28:19;;;;;;;3.50;0.60;;;10.30;99.90;;;;;;5116149;28;20056;-68
2021/12/01 11:30:49;;;;;;;2.92;0.55;;;10.20;99.90;;;;;;5116718;28;20141;-66
2021/12/01 11:33:17;;;;;;;4.95;0.60;;;10.20;99.90;;;;;;5116732;28;20036;-60
2021/12/01 11:35:46;;;;;;;4.18;0.80;;;10.40;99.90;;;;;;5116566;28;20027;-62
2021/12/01 11:38:12;;;;;;;2.83;0.90;;;10.40;99.90;;;;;;5117206;28;20380;-67
2021/12/01 11:40:39;;;;;;;4.63;0.95;;;10.40;99.90;;;;;;5115689;28;20056;-66
2021/12/01 11:43:08;;;;;;;5.32;0.75;;;10.30;99.90;;;;;;5116461;28;20028;-67
2021/12/01 11:45:36;;;;;;;3.70;0.70;;;10.30;99.90;;;;;;5116617;28;20027;-66
2021/12/01 11:48:04;;;;;;;2.03;0.60;;;10.40;99.90;;;;;;5116736;28;20035;-67
2021/12/01 11:50:33;;;;;;;4.20;0.60;;;10.60;99.90;;;;;;5119144;28;20046;-69
2021/12/01 11:53:21;;;;;;;4.80;1.10;;;10.90;99.90;;;;;;5119617;28;20032;-67
2021/12/01 11:55:58;;;;;;;5.03;0.70;;;11.10;99.90;;;;;;5120322;28;20435;-60
2021/12/01 11:58:45;;;;;;;5.00;0.60;;;11.00;99.90;;;;;;5120971;28;20037;-67
2021/12/01 12:01:20;;;;;;;3.90;0.57;;;10.90;99.90;;;;;;5119510;28;20041;-67
2021/12/01 12:03:59;;;;;;;4.15;0.50;;;10.80;99.90;;;;;;5120388;28;20330;-67
2021/12/01 12:06:30;;;;;;;3.83;0.80;;;10.70;99.90;;;;;;5120121;28;20023;-63
2021/12/01 12:08:57;;;;;;;3.92;0.77;;;10.70;99.90;;;;;;5120415;28;20023;-66
2021/12/01 12:11:43;;;;;;;4.40;0.95;;;10.70;99.90;;;;;;5119197;28;20304;-66
2021/12/01 12:14:23;;;;;;;3.55;0.63;;;10.50;99.90;;;;;;5119887;28;20270;-66
2021/12/01 12:17:12;;;;;;;3.47;1.02;;;10.30;99.90;;;;;;5119816;28;20409;-63
2021/12/01 12:19:51;;;;;;;3.65;0.88;;;10.30;99.90;;;;;;5119830;28;20270;-62
2021/12/01 12:22:31;;;;;;;7.07;1.00;;;10.20;99.90;;;;;;5119207;28;20092;-64
2021/12/01 12:24:57;;;;;;;6.95;0.95;;;10.20;99.90;;;;;;5119610;28;20024;-65
2021/12/01 12:27:39;;;;;;;3.80;0.73;;;10.30;99.90;;;;;;5119515;28;20054;-65
2021/12/01 12:30:11;;;;;;;4.38;0.85;;;10.40;99.90;;;;;;5119429;28;20126;-64
2021/12/01 12:32:39;;;;;;;5.57;0.77;;;10.40;99.90;;;;;;5118677;28;20027;-66
2021/12/01 12:35:12;;;;;;;4.95;0.85;;;10.50;99.90;;;;;;5119780;28;20102;-64
2021/12/01 12:37:38;;;;;;;;;;;10.60;99.90;;;;;;5119889;28;20096;-63
2021/12/01 12:40:12;;;;;;;7.05;0.98;;;10.50;99.90;;;;;;5119204;28;19915;-64
2021/12/01 12:43:14;;;;;;;7.60;0.85;;;10.60;99.90;;;;;;5119346;28;20110;-64
2021/12/01 12:46:04;;;;;;;4.15;0.80;;;10.60;99.90;;;;;;5119251;28;20055;-65
2021/12/01 12:48:33;;;;;;;4.03;0.70;;;10.80;99.90;;;;;;5119382;28;20346;-60
2021/12/01 12:51:40;;;;;;;8.98;0.90;;;10.90;99.90;;;;;;5119072;28;20100;-63
2021/12/01 12:54:07;;;;;;;5.85;0.82;;;10.80;99.90;;;;;;5074589;28;20126;-63
2021/12/01 12:56:39;;;;;;;3.33;0.80;;;11.00;99.90;;;;;;5119060;28;20076;-62
2021/12/01 12:59:28;;;;;;;3.80;0.90;;;10.90;99.90;;;;;;5119006;28;20034;-62
2021/12/01 13:02:17;;;;;;;4.32;0.80;;;10.70;99.90;;;;;;5118575;28;20403;-58
2021/12/01 13:07:30;;;;;;;5.85;1.05;;;10.20;99.90;;;;;;5118909;28;20036;-64
2021/12/01 13:10:34;;;;;;;7.05;1.50;;;10.10;99.90;;;;;;5118802;28;20036;-62